Time;durP1;ratioP1;P1;durP2;ratioP2;P2;SDS_P1;SDS_P2;PMS_P1;PMS_P2;Temp;Humidity;BMP_temperature;BMP_pressure;BME280_temperature;BME280_humidity;BME280_pressure;Samples;Min_cycle;Max_cycle;Signal;HPM_P1;HPM_P2
2022/07/09 00:00:28;;;;;;;11.43;3.03;;;15.30;99.90;;;;;;6210540;23;20463;-69
2022/07/09 00:02:54;;;;;;;12.93;4.43;;;15.20;99.90;;;;;;6208849;23;20115;-70
2022/07/09 00:05:19;;;;;;;14.10;2.88;;;15.20;99.90;;;;;;6210520;23;20127;-69
2022/07/09 00:07:45;;;;;;;9.77;2.38;;;15.20;99.90;;;;;;6210355;23;20402;-69
2022/07/09 00:10:11;;;;;;;9.40;3.00;;;15.10;99.90;;;;;;6237646;23;20017;-69
2022/07/09 00:12:37;;;;;;;5.88;2.72;;;15.20;99.90;;;;;;6237316;23;20050;-69
2022/07/09 00:15:03;;;;;;;12.45;2.70;;;15.20;99.90;;;;;;6210172;23;20024;-69
2022/07/09 00:17:34;;;;;;;10.55;2.58;;;15.20;99.90;;;;;;6210209;23;20994;-69
2022/07/09 00:20:02;;;;;;;7.45;2.90;;;15.20;99.90;;;;;;6184674;23;20059;-69
2022/07/09 00:22:28;;;;;;;11.40;4.13;;;15.20;99.90;;;;;;6185942;23;20028;-69
2022/07/09 00:24:54;;;;;;;9.38;2.83;;;15.30;99.90;;;;;;6210283;23;20024;-69
2022/07/09 00:27:19;;;;;;;5.22;2.75;;;15.30;99.90;;;;;;6210002;23;20074;-69
2022/07/09 00:29:45;;;;;;;8.45;2.75;;;15.30;99.90;;;;;;6210759;23;20020;-69
2022/07/09 00:32:11;;;;;;;11.10;3.40;;;15.40;99.90;;;;;;6209880;23;20091;-70
2022/07/09 00:34:36;;;;;;;6.70;2.70;;;15.40;99.90;;;;;;6212467;23;20049;-69
2022/07/09 00:37:02;;;;;;;12.02;2.80;;;15.50;99.90;;;;;;6211330;23;20069;-69
2022/07/09 00:39:28;;;;;;;14.13;3.40;;;15.50;99.90;;;;;;6212126;23;20470;-70
2022/07/09 00:42:05;;;;;;;9.60;3.30;;;15.50;99.90;;;;;;6211697;23;20138;-69
2022/07/09 00:44:31;;;;;;;14.98;3.10;;;15.60;99.90;;;;;;6212112;23;20463;-69
2022/07/09 00:46:57;;;;;;;15.45;3.15;;;15.60;99.90;;;;;;6187386;23;20047;-69
2022/07/09 00:49:24;;;;;;;11.57;3.10;;;15.60;99.90;;;;;;6210913;23;20042;-69
2022/07/09 00:51:50;;;;;;;13.63;2.80;;;15.60;99.90;;;;;;6187242;23;20321;-69
2022/07/09 00:54:16;;;;;;;7.25;3.20;;;15.60;99.90;;;;;;6236518;23;20495;-69
2022/07/09 00:56:42;;;;;;;10.85;2.92;;;15.60;99.90;;;;;;6212458;23;20020;-69
2022/07/09 00:59:12;;;;;;;9.32;3.40;;;15.60;99.90;;;;;;6210696;23;20454;-69
2022/07/09 01:01:39;;;;;;;10.63;3.60;;;15.60;99.90;;;;;;6211963;23;20024;-69
2022/07/09 01:04:06;;;;;;;11.93;3.72;;;15.60;99.90;;;;;;6186795;23;20024;-69
2022/07/09 01:06:31;;;;;;;10.35;3.50;;;15.60;99.90;;;;;;6211104;23;20315;-69
2022/07/09 01:08:57;;;;;;;7.53;3.30;;;15.50;99.90;;;;;;6212154;23;20431;-69
2022/07/09 01:11:23;;;;;;;11.38;3.55;;;15.50;99.90;;;;;;6210583;23;20428;-69
2022/07/09 01:13:50;;;;;;;7.93;3.30;;;15.50;99.90;;;;;;6212498;23;20074;-69
2022/07/09 01:16:16;;;;;;;15.07;3.60;;;15.50;99.90;;;;;;6210958;23;20470;-69
2022/07/09 01:18:46;;;;;;;9.48;2.80;;;15.50;99.90;;;;;;6187165;23;20020;-69
2022/07/09 01:21:15;;;;;;;13.57;3.80;;;15.50;99.90;;;;;;6210958;23;20324;-69
2022/07/09 01:23:41;;;;;;;9.50;3.03;;;15.50;99.90;;;;;;6237013;23;20024;-69
2022/07/09 01:26:07;;;;;;;11.80;3.92;;;15.50;99.90;;;;;;6186871;23;20020;-69
2022/07/09 01:28:33;;;;;;;12.60;3.95;;;15.50;99.90;;;;;;6210134;23;20024;-69
2022/07/09 01:31:02;;;;;;;6.20;3.17;;;15.50;99.90;;;;;;6211908;23;20916;-68
2022/07/09 01:33:27;;;;;;;10.80;3.80;;;15.60;99.90;;;;;;6210103;23;20027;-69
2022/07/09 01:35:53;;;;;;;10.75;3.55;;;15.60;99.90;;;;;;6239086;23;20499;-69
2022/07/09 01:38:19;;;;;;;11.45;3.80;;;15.60;99.90;;;;;;6238018;22;20058;-69
2022/07/09 01:40:44;;;;;;;11.43;3.85;;;15.60;99.90;;;;;;6211450;23;20052;-68
2022/07/09 01:43:10;;;;;;;13.90;3.47;;;15.60;99.90;;;;;;6211641;23;20448;-69
2022/07/09 01:45:36;;;;;;;9.05;3.97;;;15.70;99.90;;;;;;6209960;23;20026;-69
2022/07/09 01:48:02;;;;;;;10.48;3.40;;;15.70;99.90;;;;;;6211841;23;20115;-69
2022/07/09 01:50:28;;;;;;;6.75;3.40;;;15.70;99.90;;;;;;6209877;23;20016;-69
2022/07/09 01:52:54;;;;;;;8.18;3.67;;;15.70;99.90;;;;;;6212104;23;20461;-69
2022/07/09 01:55:19;;;;;;;15.48;4.53;;;15.70;99.90;;;;;;6210896;23;20051;-69
2022/07/09 01:57:45;;;;;;;7.93;3.75;;;15.80;99.90;;;;;;6236533;22;20043;-69
2022/07/09 02:00:11;;;;;;;11.55;4.22;;;15.80;99.90;;;;;;6235933;23;20688;-69
2022/07/09 02:02:37;;;;;;;6.97;4.00;;;15.80;99.90;;;;;;6235962;23;20012;-69
2022/07/09 02:05:03;;;;;;;14.32;4.15;;;15.80;99.90;;;;;;6212009;23;20026;-68
2022/07/09 02:07:29;;;;;;;11.70;4.22;;;15.80;99.90;;;;;;6235596;23;20095;-69
2022/07/09 02:09:55;;;;;;;7.68;3.55;;;15.90;99.90;;;;;;6237547;23;20333;-69
2022/07/09 02:12:23;;;;;;;12.02;4.05;;;15.90;99.90;;;;;;6211033;23;20346;-69
2022/07/09 02:14:49;;;;;;;8.65;3.25;;;15.90;99.90;;;;;;6237056;23;20117;-70
2022/07/09 02:17:15;;;;;;;9.90;3.58;;;15.90;99.90;;;;;;6210831;23;20024;-69
2022/07/09 02:19:41;;;;;;;11.00;3.50;;;15.90;99.90;;;;;;6211152;23;20023;-69
2022/07/09 02:22:07;;;;;;;13.43;4.25;;;15.90;99.90;;;;;;6236953;23;20032;-69
2022/07/09 02:24:32;;;;;;;9.77;3.97;;;15.90;99.90;;;;;;6235526;23;20019;-69
2022/07/09 02:26:58;;;;;;;15.32;4.22;;;15.90;99.90;;;;;;6236754;23;20016;-69
2022/07/09 02:29:24;;;;;;;19.38;4.13;;;15.90;99.90;;;;;;6235564;23;20447;-69
2022/07/09 02:31:50;;;;;;;12.48;3.88;;;15.90;99.90;;;;;;6238203;23;20020;-69
2022/07/09 02:34:15;;;;;;;16.92;4.28;;;16.00;99.90;;;;;;6185558;23;20094;-69
2022/07/09 02:36:41;;;;;;;11.60;3.85;;;15.90;99.90;;;;;;6236121;23;20016;-70
2022/07/09 02:39:06;;;;;;;11.38;4.20;;;16.00;99.90;;;;;;6210930;23;20020;-70
2022/07/09 02:41:32;;;;;;;10.52;4.35;;;16.00;99.90;;;;;;6235895;23;20020;-69
2022/07/09 02:43:58;;;;;;;10.15;4.55;;;16.00;99.90;;;;;;6236384;23;20095;-69
2022/07/09 02:46:23;;;;;;;15.43;4.47;;;16.00;99.90;;;;;;6235542;23;20020;-69
2022/07/09 02:48:49;;;;;;;12.70;4.75;;;16.00;99.90;;;;;;6236034;23;20111;-70
2022/07/09 02:51:15;;;;;;;17.00;4.75;;;16.10;99.90;;;;;;6234993;23;20026;-68
2022/07/09 02:53:41;;;;;;;11.55;4.30;;;16.10;99.90;;;;;;6236674;23;20020;-69
2022/07/09 02:56:08;;;;;;;7.80;3.90;;;16.10;99.90;;;;;;6235140;23;20086;-69
2022/07/09 02:58:33;;;;;;;13.20;4.30;;;16.10;99.90;;;;;;6235936;23;20343;-69
2022/07/09 03:00:59;;;;;;;8.95;4.28;;;16.10;99.90;;;;;;6235935;23;20528;-69
2022/07/09 03:03:26;;;;;;;15.43;3.90;;;16.10;99.90;;;;;;6210596;23;20027;-69
2022/07/09 03:05:52;;;;;;;10.88;4.05;;;16.00;99.90;;;;;;6236209;23;20028;-69
2022/07/09 03:08:21;;;;;;;13.82;5.05;;;16.00;99.90;;;;;;6235322;22;20009;-69
2022/07/09 03:10:48;;;;;;;15.10;4.03;;;16.00;99.90;;;;;;6236313;23;20079;-70
2022/07/09 03:13:14;;;;;;;12.00;4.25;;;15.90;99.90;;;;;;6235368;23;20402;-69
2022/07/09 03:15:40;;;;;;;11.65;5.10;;;15.90;99.90;;;;;;6236007;23;20024;-69
2022/07/09 03:18:08;;;;;;;17.25;4.65;;;15.90;99.90;;;;;;6235889;23;20471;-69
2022/07/09 03:20:35;;;;;;;13.15;4.38;;;15.90;99.90;;;;;;6210770;23;20023;-69
2022/07/09 03:23:01;;;;;;;15.07;4.28;;;15.90;99.90;;;;;;6235953;23;20020;-70
2022/07/09 03:25:27;;;;;;;8.60;3.83;;;15.80;99.90;;;;;;6235170;23;20352;-69
2022/07/09 03:27:54;;;;;;;16.40;4.25;;;15.80;99.90;;;;;;6236117;23;20447;-69
2022/07/09 03:30:19;;;;;;;17.23;4.35;;;15.80;99.90;;;;;;6235050;23;20020;-69
2022/07/09 03:32:45;;;;;;;8.55;3.95;;;15.70;99.90;;;;;;6235629;23;20028;-69
2022/07/09 03:35:11;;;;;;;12.98;4.00;;;15.70;99.90;;;;;;6210458;23;20020;-69
2022/07/09 03:37:37;;;;;;;13.05;4.35;;;15.70;99.90;;;;;;6235843;23;20051;-69
2022/07/09 03:40:03;;;;;;;11.60;4.45;;;15.70;99.90;;;;;;6236049;23;20024;-69
2022/07/09 03:42:29;;;;;;;10.18;3.72;;;15.70;99.90;;;;;;6235473;23;20091;-69
2022/07/09 03:44:55;;;;;;;12.75;3.65;;;15.70;99.90;;;;;;6235621;23;20051;-69
2022/07/09 03:47:20;;;;;;;16.75;4.78;;;15.70;99.90;;;;;;6234933;23;20024;-69
2022/07/09 03:49:46;;;;;;;10.15;4.18;;;15.70;99.90;;;;;;6185391;23;20498;-69
2022/07/09 03:52:12;;;;;;;12.00;4.03;;;15.70;99.90;;;;;;6209989;23;20020;-69
2022/07/09 03:54:38;;;;;;;12.23;4.18;;;15.80;99.90;;;;;;6210358;23;20024;-69
2022/07/09 03:57:04;;;;;;;12.35;4.18;;;15.90;99.90;;;;;;6210380;23;20412;-69
2022/07/09 03:59:29;;;;;;;15.93;3.88;;;15.80;99.90;;;;;;6210239;23;20321;-69
2022/07/09 04:01:55;;;;;;;12.05;3.55;;;15.80;99.90;;;;;;6185292;23;20131;-69
2022/07/09 04:04:21;;;;;;;14.52;4.40;;;15.90;99.90;;;;;;6209804;23;20451;-70
2022/07/09 04:06:46;;;;;;;12.63;3.83;;;15.90;99.90;;;;;;6210505;23;20052;-69
2022/07/09 04:09:12;;;;;;;8.05;3.40;;;15.90;99.90;;;;;;6211128;23;20089;-69
2022/07/09 04:11:38;;;;;;;11.57;3.88;;;15.90;99.90;;;;;;6239716;23;20020;-69
2022/07/09 04:14:04;;;;;;;12.52;4.30;;;15.90;99.90;;;;;;6211946;23;20435;-69
2022/07/09 04:16:30;;;;;;;12.57;4.30;;;15.90;99.90;;;;;;6212927;23;20089;-69
2022/07/09 04:18:56;;;;;;;14.50;4.63;;;15.90;99.90;;;;;;6211902;23;20095;-69
2022/07/09 04:21:22;;;;;;;8.82;3.55;;;15.90;99.90;;;;;;6211440;23;20024;-69
2022/07/09 04:23:49;;;;;;;15.55;4.38;;;15.90;99.90;;;;;;6212169;23;20039;-69
2022/07/09 04:26:15;;;;;;;12.63;3.97;;;15.90;99.90;;;;;;6211470;23;20091;-69
2022/07/09 04:28:40;;;;;;;10.00;3.55;;;15.90;99.90;;;;;;6212450;23;20028;-69
2022/07/09 04:31:06;;;;;;;7.78;3.53;;;15.90;99.90;;;;;;6211900;23;20016;-69
2022/07/09 04:33:32;;;;;;;9.35;3.13;;;15.90;99.90;;;;;;6212693;23;20102;-69
2022/07/09 04:35:58;;;;;;;6.22;3.20;;;15.90;99.90;;;;;;6211880;23;20443;-69
2022/07/09 04:38:24;;;;;;;6.95;3.03;;;16.00;99.90;;;;;;6239253;23;20027;-69
2022/07/09 04:40:50;;;;;;;9.13;3.33;;;16.00;99.90;;;;;;6211740;23;20099;-70
2022/07/09 04:43:16;;;;;;;9.32;3.63;;;16.00;99.90;;;;;;6186981;23;20370;-70
2022/07/09 04:45:42;;;;;;;13.23;3.20;;;16.00;99.90;;;;;;6212028;23;20023;-69
2022/07/09 04:48:08;;;;;;;11.32;3.30;;;16.00;99.90;;;;;;6211404;23;20016;-69
2022/07/09 04:50:34;;;;;;;10.90;3.50;;;16.00;99.90;;;;;;6212179;23;20042;-69
2022/07/09 04:53:00;;;;;;;11.98;3.80;;;16.00;99.90;;;;;;6186028;23;20458;-69
2022/07/09 04:55:25;;;;;;;12.15;3.40;;;16.00;99.90;;;;;;6212134;23;20097;-68
2022/07/09 04:57:51;;;;;;;8.88;3.03;;;16.10;99.90;;;;;;6238911;23;20510;-69
2022/07/09 05:00:17;;;;;;;6.70;2.80;;;16.10;99.90;;;;;;6186301;23;20103;-69
2022/07/09 05:02:44;;;;;;;10.57;3.47;;;16.10;99.90;;;;;;6211664;23;20075;-69
2022/07/09 05:05:10;;;;;;;11.57;3.60;;;16.10;99.90;;;;;;6211209;23;20024;-69
2022/07/09 05:07:36;;;;;;;6.22;3.03;;;16.20;99.90;;;;;;6212795;23;20391;-69
2022/07/09 05:10:03;;;;;;;10.18;3.38;;;16.20;99.90;;;;;;6210705;23;20024;-69
2022/07/09 05:12:29;;;;;;;13.55;3.50;;;16.20;99.90;;;;;;6211728;23;20020;-70
2022/07/09 05:14:56;;;;;;;11.82;3.03;;;16.30;99.90;;;;;;6237152;23;20095;-69
2022/07/09 05:17:25;;;;;;;9.15;3.63;;;16.30;99.90;;;;;;6237101;23;20066;-69
2022/07/09 05:19:50;;;;;;;12.45;3.88;;;16.30;99.90;;;;;;6236116;23;20095;-69
2022/07/09 05:22:16;;;;;;;8.98;3.47;;;16.40;99.90;;;;;;6236334;23;20070;-69
2022/07/09 05:24:42;;;;;;;10.23;3.72;;;16.40;99.90;;;;;;6236890;23;20344;-69
2022/07/09 05:27:09;;;;;;;9.68;3.47;;;16.40;99.90;;;;;;6236078;23;20889;-69
2022/07/09 05:29:35;;;;;;;9.05;4.05;;;16.40;99.90;;;;;;6237476;23;20020;-69
2022/07/09 05:32:01;;;;;;;7.93;3.55;;;16.40;99.90;;;;;;6210830;23;20058;-69
2022/07/09 05:34:27;;;;;;;10.35;3.50;;;16.40;99.90;;;;;;6237032;23;20027;-70
2022/07/09 05:36:54;;;;;;;7.82;3.45;;;16.50;99.90;;;;;;6212279;23;20447;-69
2022/07/09 05:39:21;;;;;;;7.85;3.42;;;16.50;99.90;;;;;;6236312;23;20059;-69
2022/07/09 05:41:46;;;;;;;9.13;3.55;;;16.50;99.90;;;;;;6236752;23;20016;-69
2022/07/09 05:44:12;;;;;;;11.32;3.70;;;16.60;99.90;;;;;;6210689;23;20447;-69
2022/07/09 05:46:38;;;;;;;11.73;3.55;;;16.60;99.90;;;;;;6236897;23;20020;-69
2022/07/09 05:49:04;;;;;;;4.78;2.83;;;16.60;99.90;;;;;;6235724;23;20024;-69
2022/07/09 05:51:29;;;;;;;9.07;3.22;;;16.60;99.90;;;;;;6236468;23;20063;-69
2022/07/09 05:53:55;;;;;;;6.38;3.20;;;16.60;99.90;;;;;;6236638;23;20024;-68
2022/07/09 05:56:22;;;;;;;7.72;3.65;;;16.70;99.90;;;;;;6236429;23;20020;-69
2022/07/09 05:58:48;;;;;;;9.07;3.53;;;16.70;99.90;;;;;;6186551;23;20020;-69
2022/07/09 06:01:14;;;;;;;6.95;3.17;;;16.70;99.90;;;;;;6210646;23;20062;-69
2022/07/09 06:03:40;;;;;;;7.22;3.17;;;16.80;99.90;;;;;;6212075;23;20017;-68
2022/07/09 06:06:06;;;;;;;5.60;3.28;;;16.80;99.90;;;;;;6237381;23;20402;-69
2022/07/09 06:08:33;;;;;;;8.38;3.42;;;16.80;99.90;;;;;;6186514;23;20024;-69
2022/07/09 06:10:59;;;;;;;8.43;3.42;;;16.90;99.90;;;;;;6210355;23;20062;-69
2022/07/09 06:13:25;;;;;;;8.02;3.30;;;16.90;99.90;;;;;;6238836;23;20020;-69
2022/07/09 06:15:52;;;;;;;10.18;3.33;;;17.00;99.90;;;;;;6210973;23;20016;-69
2022/07/09 06:18:18;;;;;;;5.45;3.38;;;17.00;99.90;;;;;;6185888;23;20095;-69
2022/07/09 06:20:45;;;;;;;7.20;3.15;;;17.00;99.90;;;;;;6186118;23;20047;-69
2022/07/09 06:23:11;;;;;;;9.60;3.33;;;17.00;99.90;;;;;;6237614;23;20335;-69
2022/07/09 06:25:41;;;;;;;7.53;3.25;;;17.10;99.90;;;;;;6236616;23;20013;-69
2022/07/09 06:28:06;;;;;;;9.77;3.40;;;17.10;99.90;;;;;;6235327;23;20346;-70
2022/07/09 06:30:33;;;;;;;9.32;3.58;;;17.10;99.90;;;;;;6236389;23;20095;-69
2022/07/09 06:33:00;;;;;;;5.90;2.83;;;17.10;99.90;;;;;;6235954;23;20016;-68
2022/07/09 06:35:26;;;;;;;7.40;2.88;;;17.10;99.90;;;;;;6236129;23;20099;-69
2022/07/09 06:37:51;;;;;;;8.40;3.20;;;17.10;99.90;;;;;;6211029;23;20059;-69
2022/07/09 06:40:17;;;;;;;10.70;3.47;;;17.20;99.90;;;;;;6235530;23;20020;-69
2022/07/09 06:42:43;;;;;;;8.68;2.92;;;17.20;99.90;;;;;;6237190;22;20065;-69
2022/07/09 06:45:09;;;;;;;7.43;3.10;;;17.20;99.90;;;;;;6235357;23;20016;-69
2022/07/09 06:47:35;;;;;;;7.63;2.70;;;17.20;99.90;;;;;;6236655;23;20363;-69
2022/07/09 06:50:01;;;;;;;6.35;2.60;;;17.30;99.90;;;;;;6210140;23;20028;-69
2022/07/09 06:52:27;;;;;;;8.52;2.67;;;17.30;99.90;;;;;;6236068;23;20020;-69
2022/07/09 06:54:53;;;;;;;7.43;3.05;;;17.30;99.90;;;;;;6236546;22;20020;-69
2022/07/09 06:57:19;;;;;;;10.50;2.20;;;17.30;99.90;;;;;;6185475;23;20021;-69
2022/07/09 06:59:45;;;;;;;6.85;2.10;;;17.40;99.90;;;;;;6210775;23;20024;-70
2022/07/09 07:02:12;;;;;;;7.15;2.25;;;17.40;99.90;;;;;;6234591;23;20020;-69
2022/07/09 07:04:38;;;;;;;7.78;2.10;;;17.50;99.90;;;;;;6236794;23;20044;-69
2022/07/09 07:07:04;;;;;;;10.15;2.92;;;17.50;99.90;;;;;;6234698;23;20027;-69
2022/07/09 07:09:30;;;;;;;5.90;2.10;;;17.50;99.90;;;;;;6236276;23;20103;-70
2022/07/09 07:11:57;;;;;;;6.03;2.15;;;17.60;99.90;;;;;;6235599;23;20030;-69
2022/07/09 07:14:22;;;;;;;7.50;2.08;;;17.70;99.90;;;;;;6235287;23;20026;-69
2022/07/09 07:16:48;;;;;;;9.07;2.30;;;17.70;99.90;;;;;;6235685;23;20459;-69
2022/07/09 07:19:14;;;;;;;6.03;2.20;;;17.80;99.90;;;;;;6234688;23;20028;-69
2022/07/09 07:21:40;;;;;;;11.32;2.28;;;17.80;99.90;;;;;;6235432;23;20248;-70
2022/07/09 07:24:06;;;;;;;5.63;1.30;;;17.90;99.90;;;;;;6234610;23;20024;-69
2022/07/09 07:26:33;;;;;;;10.90;1.80;;;18.00;99.90;;;;;;6236065;23;20031;-69
2022/07/09 07:28:59;;;;;;;4.43;1.35;;;18.00;99.90;;;;;;6235336;23;20023;-68
2022/07/09 07:31:25;;;;;;;5.47;1.55;;;18.00;99.90;;;;;;6234912;22;20072;-70
2022/07/09 07:33:51;;;;;;;3.88;1.40;;;18.00;99.90;;;;;;6233182;23;20024;-70
2022/07/09 07:36:19;;;;;;;6.65;1.65;;;18.10;99.90;;;;;;6233419;22;20139;-70
2022/07/09 07:38:45;;;;;;;3.67;1.30;;;18.20;99.90;;;;;;6233591;23;20031;-70
2022/07/09 07:41:12;;;;;;;6.40;1.38;;;18.30;99.90;;;;;;6233229;23;20024;-70
2022/07/09 07:43:38;;;;;;;4.82;1.60;;;18.30;99.90;;;;;;6239089;23;20016;-69
2022/07/09 07:46:05;;;;;;;6.22;1.23;;;18.30;99.90;;;;;;6236137;23;20652;-70
2022/07/09 07:48:31;;;;;;;8.90;1.30;;;18.30;99.90;;;;;;6212845;23;20027;-69
2022/07/09 07:50:57;;;;;;;3.08;1.30;;;18.40;99.90;;;;;;6211846;23;20086;-70
2022/07/09 07:53:23;;;;;;;12.18;2.03;;;18.50;99.90;;;;;;6237824;23;20055;-69
2022/07/09 07:55:49;;;;;;;6.38;1.40;;;18.50;99.90;;;;;;6238204;23;20024;-70
2022/07/09 07:58:15;;;;;;;5.35;1.27;;;18.50;99.90;;;;;;6236441;23;20024;-69
2022/07/09 08:00:42;;;;;;;9.00;1.92;;;18.50;99.90;;;;;;6212245;23;20023;-70
2022/07/09 08:03:07;;;;;;;4.95;1.35;;;18.60;99.90;;;;;;6236237;23;20027;-69
2022/07/09 08:05:39;;;;;;;3.25;1.15;;;18.80;99.90;;;;;;6239691;23;20409;-68
2022/07/09 08:08:04;;;;;;;2.78;1.08;;;18.80;99.90;;;;;;6237071;23;20028;-69
2022/07/09 08:10:30;;;;;;;9.35;1.88;;;18.80;99.90;;;;;;6236890;23;20517;-70
2022/07/09 08:12:56;;;;;;;6.13;1.33;;;18.70;99.90;;;;;;6237000;23;20024;-70
2022/07/09 08:15:22;;;;;;;5.97;1.40;;;18.60;99.90;;;;;;6236352;23;20028;-70
2022/07/09 08:17:47;;;;;;;5.72;1.77;;;18.70;99.90;;;;;;6237392;23;20469;-69
2022/07/09 08:20:13;;;;;;;4.18;1.40;;;18.70;99.90;;;;;;6236228;23;20047;-69
2022/07/09 08:22:39;;;;;;;6.53;1.70;;;18.50;99.90;;;;;;6237286;22;20027;-70
2022/07/09 08:25:05;;;;;;;4.93;1.42;;;18.60;99.90;;;;;;6236433;23;20280;-70
2022/07/09 08:27:30;;;;;;;6.63;1.42;;;18.60;99.90;;;;;;6237419;23;20739;-70
2022/07/09 08:29:56;;;;;;;8.07;1.60;;;19.10;99.90;;;;;;6212160;23;20024;-70
2022/07/09 08:32:22;;;;;;;3.72;1.40;;;19.60;99.90;;;;;;6210985;23;20083;-70
2022/07/09 08:34:48;;;;;;;6.88;1.55;;;19.50;99.90;;;;;;6237633;23;20020;-69
2022/07/09 08:37:13;;;;;;;5.90;1.60;;;19.40;99.90;;;;;;6235524;23;20091;-71
2022/07/09 08:39:39;;;;;;;8.00;1.50;;;19.40;99.90;;;;;;6237907;23;20027;-70
2022/07/09 08:42:10;;;;;;;8.30;1.20;;;19.30;99.90;;;;;;6236311;23;20017;-69
2022/07/09 08:44:38;;;;;;;4.38;1.23;;;19.20;99.90;;;;;;6237459;23;20335;-69
2022/07/09 08:47:05;;;;;;;8.02;1.50;;;19.20;99.90;;;;;;6236676;23;20816;-70
2022/07/09 08:49:31;;;;;;;2.78;0.80;;;19.30;99.90;;;;;;6236322;23;20070;-70
2022/07/09 08:51:57;;;;;;;2.70;1.10;;;19.30;99.90;;;;;;6237057;23;20026;-70
2022/07/09 08:54:24;;;;;;;8.15;1.23;;;19.10;99.90;;;;;;6236323;23;20095;-70
2022/07/09 08:56:53;;;;;;;3.00;1.20;;;19.00;99.90;;;;;;6237816;23;20447;-70
2022/07/09 08:59:18;;;;;;;5.13;1.25;;;18.80;99.90;;;;;;6236766;23;20058;-70
2022/07/09 09:01:44;;;;;;;7.70;1.60;;;18.60;99.90;;;;;;6237061;23;20246;-69
2022/07/09 09:04:10;;;;;;;8.55;1.70;;;18.50;99.90;;;;;;6237187;23;20016;-70
2022/07/09 09:06:37;;;;;;;5.43;1.70;;;18.50;99.90;;;;;;6211604;23;20042;-70
2022/07/09 09:09:04;;;;;;;6.43;1.30;;;18.50;99.90;;;;;;6237337;23;20017;-70
2022/07/09 09:11:31;;;;;;;10.35;1.40;;;18.60;99.90;;;;;;6236690;23;20355;-70
2022/07/09 09:13:57;;;;;;;6.38;1.45;;;18.60;99.90;;;;;;6237757;23;20447;-70
2022/07/09 09:16:23;;;;;;;4.68;1.05;;;18.80;99.90;;;;;;6236121;23;20073;-69
2022/07/09 09:18:53;;;;;;;5.10;1.38;;;18.90;99.90;;;;;;6237537;23;20012;-69
2022/07/09 09:21:24;;;;;;;11.38;1.80;;;18.90;99.90;;;;;;6211563;23;20016;-69
2022/07/09 09:23:59;;;;;;;4.53;1.48;;;19.00;99.90;;;;;;6237067;23;20348;-70
2022/07/09 09:26:28;;;;;;;4.85;1.50;;;19.10;99.90;;;;;;6237430;22;20024;-70
2022/07/09 09:29:02;;;;;;;3.23;1.20;;;19.00;99.90;;;;;;6236795;23;20020;-70
2022/07/09 09:31:28;;;;;;;10.68;1.70;;;18.90;99.90;;;;;;6237426;23;20048;-69
2022/07/09 09:33:56;;;;;;;4.80;1.35;;;18.90;99.90;;;;;;6236709;23;20109;-70
2022/07/09 09:36:39;;;;;;;4.60;1.20;;;19.10;99.90;;;;;;6211559;23;20295;-70
2022/07/09 09:39:23;;;;;;;6.45;1.42;;;19.30;99.90;;;;;;6236949;22;20047;-70
2022/07/09 09:41:50;;;;;;;8.50;1.50;;;19.30;99.90;;;;;;6236036;23;20039;-70
2022/07/09 09:44:37;;;;;;;8.75;1.45;;;19.20;99.90;;;;;;6236785;23;20050;-70
2022/07/09 09:47:04;;;;;;;9.88;1.70;;;19.20;99.90;;;;;;6236737;23;20047;-70
2022/07/09 09:49:30;;;;;;;6.93;1.92;;;19.20;99.90;;;;;;6236719;23;20020;-70
2022/07/09 09:52:03;;;;;;;9.07;1.92;;;19.10;99.90;;;;;;6236613;23;20020;-69
2022/07/09 09:54:31;;;;;;;9.98;1.52;;;19.10;99.90;;;;;;6235835;23;20020;-69
2022/07/09 09:56:59;;;;;;;7.30;1.65;;;19.00;99.90;;;;;;6237322;23;20126;-69
2022/07/09 09:59:25;;;;;;;5.40;1.40;;;18.90;99.90;;;;;;6236466;23;20398;-69
2022/07/09 10:01:51;;;;;;;9.90;1.88;;;19.10;99.90;;;;;;6234956;23;20069;-69
2022/07/09 10:04:18;;;;;;;6.68;1.65;;;19.40;99.90;;;;;;6235569;23;20023;-69
2022/07/09 10:06:44;;;;;;;9.25;1.65;;;19.80;99.90;;;;;;6238252;23;20486;-70
2022/07/09 10:09:14;;;;;;;4.97;1.40;;;19.90;99.90;;;;;;6210952;23;20091;-70
2022/07/09 10:11:45;;;;;;;4.82;1.45;;;20.00;99.90;;;;;;6234816;23;20016;-70
2022/07/09 10:14:27;;;;;;;7.80;1.48;;;20.00;99.90;;;;;;6235847;23;20024;-72
2022/07/09 10:16:54;;;;;;;9.52;1.83;;;19.90;99.90;;;;;;6235689;23;20035;-71
2022/07/09 10:19:27;;;;;;;5.55;1.55;;;20.10;99.90;;;;;;6236388;23;20023;-72
2022/07/09 10:21:57;;;;;;;11.50;1.98;;;20.20;99.90;;;;;;6236099;23;20496;-71
2022/07/09 10:24:28;;;;;;;14.25;2.53;;;19.90;99.90;;;;;;6210270;23;20095;-71
2022/07/09 10:27:02;;;;;;;11.10;2.10;;;19.20;99.90;;;;;;6236228;23;20039;-71
2022/07/09 10:29:29;;;;;;;7.38;1.70;;;18.70;99.90;;;;;;6209330;23;20339;-70
2022/07/09 10:31:57;;;;;;;10.48;2.35;;;18.10;99.90;;;;;;6236559;23;20428;-71
2022/07/09 10:35:01;;;;;;;17.23;2.40;;;17.80;99.90;;;;;;6234457;23;20016;-70
2022/07/09 10:37:31;;;;;;;9.77;2.55;;;17.80;99.90;;;;;;6209819;23;20023;-71
2022/07/09 10:40:04;;;;;;;8.93;1.98;;;17.80;99.90;;;;;;6262305;22;20056;-70
2022/07/09 10:42:30;;;;;;;10.85;1.75;;;18.00;99.90;;;;;;6235771;23;20056;-70
2022/07/09 10:44:55;;;;;;;11.80;2.00;;;18.00;99.90;;;;;;6236671;23;20026;-69
2022/07/09 10:47:21;;;;;;;8.02;2.17;;;17.90;99.90;;;;;;6235081;23;20022;-71
2022/07/09 10:49:47;;;;;;;10.02;2.25;;;17.80;99.90;;;;;;6186214;23;20020;-69
2022/07/09 10:52:13;;;;;;;9.18;1.73;;;17.70;99.90;;;;;;6235762;23;20027;-70
2022/07/09 10:54:46;;;;;;;10.88;1.75;;;17.60;99.90;;;;;;6237875;23;20028;-70
2022/07/09 10:57:13;;;;;;;12.57;2.50;;;17.60;99.90;;;;;;6236183;23;20028;-69
2022/07/09 10:59:44;;;;;;;13.68;1.83;;;17.70;99.90;;;;;;6261227;22;20058;-70
2022/07/09 11:02:18;;;;;;;8.98;1.77;;;17.70;99.90;;;;;;6210662;23;20026;-69
2022/07/09 11:04:49;;;;;;;9.00;2.17;;;17.80;99.90;;;;;;6235994;23;20016;-69
2022/07/09 11:07:20;;;;;;;10.40;2.10;;;17.90;99.90;;;;;;6235933;23;20443;-69
2022/07/09 11:09:46;;;;;;;6.13;1.75;;;18.20;99.90;;;;;;6236495;23;20028;-69
2022/07/09 11:12:21;;;;;;;11.93;2.25;;;18.30;99.90;;;;;;6235485;23;20038;-70
2022/07/09 11:14:49;;;;;;;10.05;2.10;;;18.30;99.90;;;;;;6236568;23;20518;-69
2022/07/09 11:17:16;;;;;;;14.00;2.58;;;18.50;99.90;;;;;;6235146;23;20087;-70
2022/07/09 11:19:42;;;;;;;8.25;1.67;;;18.80;99.90;;;;;;6236067;23;20078;-70
2022/07/09 11:22:08;;;;;;;8.98;1.83;;;18.80;99.90;;;;;;6205963;23;20016;-70
2022/07/09 11:24:34;;;;;;;12.68;1.77;;;18.70;99.90;;;;;;6208158;23;20495;-71
2022/07/09 11:27:07;;;;;;;10.93;1.95;;;18.50;99.90;;;;;;6209166;23;20026;-71
2022/07/09 11:29:34;;;;;;;11.18;2.38;;;18.50;99.90;;;;;;6233851;23;20039;-69
2022/07/09 11:32:01;;;;;;;8.85;1.58;;;18.50;99.90;;;;;;6236071;23;20443;-70
2022/07/09 11:34:27;;;;;;;10.48;1.40;;;18.70;99.90;;;;;;6233956;23;20474;-69
2022/07/09 11:36:57;;;;;;;10.50;1.45;;;18.70;99.90;;;;;;6210830;23;20020;-70
2022/07/09 11:39:27;;;;;;;9.13;1.45;;;18.60;95.60;;;;;;6230746;23;20143;-70
2022/07/09 11:41:53;;;;;;;11.63;1.42;;;18.50;99.90;;;;;;6233082;23;20020;-71
2022/07/09 11:44:24;;;;;;;9.55;1.60;;;18.50;99.70;;;;;;6232650;23;20091;-70
2022/07/09 11:47:09;;;;;;;3.00;0.95;;;18.50;99.20;;;;;;6231823;23;20032;-70
2022/07/09 11:49:39;;;;;;;6.28;1.08;;;18.70;96.10;;;;;;6232573;23;20024;-70
2022/07/09 11:52:25;;;;;;;6.28;1.48;;;18.80;96.30;;;;;;6233082;23;20059;-70
2022/07/09 11:54:58;;;;;;;5.30;1.50;;;19.00;97.40;;;;;;6234293;23;20016;-70
2022/07/09 11:57:24;;;;;;;8.93;1.60;;;18.90;95.90;;;;;;6235271;23;20020;-69
2022/07/09 11:59:52;;;;;;;7.07;1.25;;;19.00;96.80;;;;;;6234852;23;20027;-71
2022/07/09 12:02:36;;;;;;;4.75;1.10;;;18.90;95.80;;;;;;6236298;23;20027;-69
2022/07/09 12:05:05;;;;;;;8.35;1.40;;;19.00;98.70;;;;;;6211229;23;20020;-70
2022/07/09 12:07:31;;;;;;;10.23;2.35;;;19.00;98.90;;;;;;6235299;22;20024;-71
2022/07/09 12:10:04;;;;;;;7.57;1.65;;;18.90;95.80;;;;;;6233059;23;20022;-71
2022/07/09 12:12:31;;;;;;;4.57;1.13;;;18.80;96.20;;;;;;6232351;23;20024;-71
2022/07/09 12:14:57;;;;;;;7.47;1.40;;;18.70;98.20;;;;;;6235163;23;20055;-70
2022/07/09 12:17:27;;;;;;;9.15;1.30;;;18.70;96.50;;;;;;6233619;23;20020;-70
2022/07/09 12:19:54;;;;;;;5.63;1.50;;;18.70;94.30;;;;;;6235578;23;20028;-70
2022/07/09 12:22:20;;;;;;;7.68;1.30;;;18.60;95.10;;;;;;6234652;23;20395;-70
2022/07/09 12:24:47;;;;;;;11.27;1.40;;;18.40;93.50;;;;;;6236160;23;20089;-71
2022/07/09 12:27:13;;;;;;;8.43;1.23;;;18.50;98.60;;;;;;6237232;23;20024;-69
2022/07/09 12:29:38;;;;;;;5.95;1.00;;;18.50;95.20;;;;;;6235503;23;20458;-70
2022/07/09 12:32:05;;;;;;;9.20;1.60;;;18.60;99.30;;;;;;6237593;23;20081;-70
2022/07/09 12:34:31;;;;;;;11.82;1.42;;;18.60;94.10;;;;;;6235233;23;20091;-69
2022/07/09 12:36:57;;;;;;;5.57;1.40;;;18.50;91.90;;;;;;6237143;23;20016;-71
2022/07/09 12:39:22;;;;;;;4.68;1.33;;;18.40;84.40;;;;;;6236388;23;20043;-70
2022/07/09 12:41:48;;;;;;;5.45;1.30;;;18.40;96.10;;;;;;6235480;23;20031;-70